sensor_id;sensor_type;location;lat;lon;timestamp;P1;durP1;ratioP1;P2;durP2;ratioP2
34200;SDS011;20469;55.638;37.670;2024-02-04T00:01:50;11.88;;;6.40;;
34200;SDS011;20469;55.638;37.670;2024-02-04T00:04:18;12.75;;;7.47;;
34200;SDS011;20469;55.638;37.670;2024-02-04T00:06:46;10.20;;;7.30;;
34200;SDS011;20469;55.638;37.670;2024-02-04T00:09:14;12.82;;;7.82;;
34200;SDS011;20469;55.638;37.670;2024-02-04T00:11:42;14.30;;;8.77;;
34200;SDS011;20469;55.638;37.670;2024-02-04T00:14:11;16.95;;;10.43;;
34200;SDS011;20469;55.638;37.670;2024-02-04T00:16:39;10.10;;;7.22;;
34200;SDS011;20469;55.638;37.670;2024-02-04T00:19:24;13.55;;;9.02;;
34200;SDS011;20469;55.638;37.670;2024-02-04T00:21:53;13.68;;;8.98;;
34200;SDS011;20469;55.638;37.670;2024-02-04T00:24:21;12.50;;;7.80;;
34200;SDS011;20469;55.638;37.670;2024-02-04T00:26:49;10.75;;;7.20;;
34200;SDS011;20469;55.638;37.670;2024-02-04T00:29:18;10.85;;;6.72;;
34200;SDS011;20469;55.638;37.670;2024-02-04T00:31:46;12.80;;;6.88;;
34200;SDS011;20469;55.638;37.670;2024-02-04T00:34:14;12.00;;;6.97;;
34200;SDS011;20469;55.638;37.670;2024-02-04T00:36:42;11.82;;;7.40;;
34200;SDS011;20469;55.638;37.670;2024-02-04T00:39:10;12.85;;;7.13;;
34200;SDS011;20469;55.638;37.670;2024-02-04T00:41:38;14.55;;;8.00;;
34200;SDS011;20469;55.638;37.670;2024-02-04T00:44:06;10.35;;;6.05;;
34200;SDS011;20469;55.638;37.670;2024-02-04T00:46:33;11.35;;;7.85;;
34200;SDS011;20469;55.638;37.670;2024-02-04T00:49:01;9.88;;;6.18;;
34200;SDS011;20469;55.638;37.670;2024-02-04T00:51:29;9.10;;;6.28;;
34200;SDS011;20469;55.638;37.670;2024-02-04T00:53:57;10.32;;;5.97;;
34200;SDS011;20469;55.638;37.670;2024-02-04T00:56:25;11.23;;;6.10;;
34200;SDS011;20469;55.638;37.670;2024-02-04T00:58:53;9.05;;;6.57;;
34200;SDS011;20469;55.638;37.670;2024-02-04T01:01:21;10.25;;;6.35;;
34200;SDS011;20469;55.638;37.670;2024-02-04T01:03:49;8.85;;;6.30;;
34200;SDS011;20469;55.638;37.670;2024-02-04T01:06:17;8.38;;;5.93;;
34200;SDS011;20469;55.638;37.670;2024-02-04T01:08:45;7.10;;;5.35;;
34200;SDS011;20469;55.638;37.670;2024-02-04T01:11:13;6.20;;;4.90;;
34200;SDS011;20469;55.638;37.670;2024-02-04T01:13:43;8.13;;;5.90;;
34200;SDS011;20469;55.638;37.670;2024-02-04T01:16:11;7.53;;;5.68;;
34200;SDS011;20469;55.638;37.670;2024-02-04T01:18:39;9.98;;;6.30;;
34200;SDS011;20469;55.638;37.670;2024-02-04T01:21:07;8.38;;;5.60;;
34200;SDS011;20469;55.638;37.670;2024-02-04T01:23:35;6.75;;;4.88;;
34200;SDS011;20469;55.638;37.670;2024-02-04T01:26:21;7.60;;;5.90;;
34200;SDS011;20469;55.638;37.670;2024-02-04T01:28:51;7.43;;;5.43;;
34200;SDS011;20469;55.638;37.670;2024-02-04T01:31:18;7.53;;;5.30;;
34200;SDS011;20469;55.638;37.670;2024-02-04T01:33:46;6.60;;;5.38;;
34200;SDS011;20469;55.638;37.670;2024-02-04T01:36:14;8.15;;;5.82;;
34200;SDS011;20469;55.638;37.670;2024-02-04T01:38:42;7.32;;;5.72;;
34200;SDS011;20469;55.638;37.670;2024-02-04T01:41:10;7.05;;;5.75;;
34200;SDS011;20469;55.638;37.670;2024-02-04T01:43:41;7.57;;;6.32;;
34200;SDS011;20469;55.638;37.670;2024-02-04T01:46:09;7.95;;;5.32;;
34200;SDS011;20469;55.638;37.670;2024-02-04T01:48:38;7.78;;;5.80;;
34200;SDS011;20469;55.638;37.670;2024-02-04T01:51:07;8.23;;;5.38;;
34200;SDS011;20469;55.638;37.670;2024-02-04T01:53:36;7.60;;;5.45;;
34200;SDS011;20469;55.638;37.670;2024-02-04T01:56:04;7.70;;;5.75;;
34200;SDS011;20469;55.638;37.670;2024-02-04T01:58:33;10.13;;;6.30;;
34200;SDS011;20469;55.638;37.670;2024-02-04T02:01:03;6.18;;;5.38;;
34200;SDS011;20469;55.638;37.670;2024-02-04T02:03:32;7.57;;;6.05;;
34200;SDS011;20469;55.638;37.670;2024-02-04T02:06:00;8.05;;;5.85;;
34200;SDS011;20469;55.638;37.670;2024-02-04T02:08:28;8.40;;;5.90;;
34200;SDS011;20469;55.638;37.670;2024-02-04T02:11:00;6.85;;;5.35;;
34200;SDS011;20469;55.638;37.670;2024-02-04T02:13:31;7.20;;;5.38;;
34200;SDS011;20469;55.638;37.670;2024-02-04T02:19:03;7.93;;;5.60;;
34200;SDS011;20469;55.638;37.670;2024-02-04T02:26:42;6.50;;;4.72;;
34200;SDS011;20469;55.638;37.670;2024-02-04T02:29:10;6.20;;;5.28;;
34200;SDS011;20469;55.638;37.670;2024-02-04T02:31:38;5.57;;;4.95;;
34200;SDS011;20469;55.638;37.670;2024-02-04T02:34:14;6.82;;;5.20;;
34200;SDS011;20469;55.638;37.670;2024-02-04T02:36:50;7.00;;;5.50;;
34200;SDS011;20469;55.638;37.670;2024-02-04T02:41:49;6.78;;;4.60;;
34200;SDS011;20469;55.638;37.670;2024-02-04T02:44:20;8.07;;;4.80;;
34200;SDS011;20469;55.638;37.670;2024-02-04T02:46:48;5.25;;;4.45;;
34200;SDS011;20469;55.638;37.670;2024-02-04T02:49:16;5.60;;;4.43;;
34200;SDS011;20469;55.638;37.670;2024-02-04T02:51:45;6.93;;;4.40;;
34200;SDS011;20469;55.638;37.670;2024-02-04T02:54:13;7.18;;;4.63;;
34200;SDS011;20469;55.638;37.670;2024-02-04T02:56:41;6.85;;;4.53;;
34200;SDS011;20469;55.638;37.670;2024-02-04T02:59:08;6.60;;;3.88;;
34200;SDS011;20469;55.638;37.670;2024-02-04T03:01:40;6.70;;;3.80;;
34200;SDS011;20469;55.638;37.670;2024-02-04T03:06:38;4.78;;;3.67;;
34200;SDS011;20469;55.638;37.670;2024-02-04T03:09:06;7.47;;;3.80;;
34200;SDS011;20469;55.638;37.670;2024-02-04T03:11:51;5.25;;;3.90;;
34200;SDS011;20469;55.638;37.670;2024-02-04T03:14:19;6.85;;;4.10;;
34200;SDS011;20469;55.638;37.670;2024-02-04T03:16:47;6.40;;;3.70;;
34200;SDS011;20469;55.638;37.670;2024-02-04T03:19:17;3.95;;;3.13;;
34200;SDS011;20469;55.638;37.670;2024-02-04T03:21:46;4.78;;;3.40;;
34200;SDS011;20469;55.638;37.670;2024-02-04T03:24:14;5.05;;;3.40;;
34200;SDS011;20469;55.638;37.670;2024-02-04T03:26:42;5.78;;;3.30;;
34200;SDS011;20469;55.638;37.670;2024-02-04T03:29:10;8.43;;;3.63;;
34200;SDS011;20469;55.638;37.670;2024-02-04T03:31:38;6.75;;;3.47;;
34200;SDS011;20469;55.638;37.670;2024-02-04T03:34:07;7.10;;;3.75;;
34200;SDS011;20469;55.638;37.670;2024-02-04T03:36:36;4.97;;;2.95;;
34200;SDS011;20469;55.638;37.670;2024-02-04T03:39:05;5.68;;;3.08;;
34200;SDS011;20469;55.638;37.670;2024-02-04T03:41:33;5.57;;;2.90;;
34200;SDS011;20469;55.638;37.670;2024-02-04T03:44:03;4.78;;;2.83;;
34200;SDS011;20469;55.638;37.670;2024-02-04T03:46:31;4.32;;;2.60;;
34200;SDS011;20469;55.638;37.670;2024-02-04T03:48:59;3.90;;;2.60;;
34200;SDS011;20469;55.638;37.670;2024-02-04T03:51:27;3.58;;;2.60;;
34200;SDS011;20469;55.638;37.670;2024-02-04T03:53:55;3.15;;;2.30;;
34200;SDS011;20469;55.638;37.670;2024-02-04T03:56:23;3.47;;;2.30;;
34200;SDS011;20469;55.638;37.670;2024-02-04T03:58:51;4.30;;;2.35;;
34200;SDS011;20469;55.638;37.670;2024-02-04T04:01:19;5.00;;;2.25;;
34200;SDS011;20469;55.638;37.670;2024-02-04T04:03:48;3.20;;;2.17;;
34200;SDS011;20469;55.638;37.670;2024-02-04T04:06:15;2.47;;;2.15;;
34200;SDS011;20469;55.638;37.670;2024-02-04T04:08:43;3.72;;;2.15;;
34200;SDS011;20469;55.638;37.670;2024-02-04T04:11:12;3.65;;;2.10;;
34200;SDS011;20469;55.638;37.670;2024-02-04T04:13:40;2.70;;;2.22;;
34200;SDS011;20469;55.638;37.670;2024-02-04T04:16:07;2.67;;;2.00;;
34200;SDS011;20469;55.638;37.670;2024-02-04T04:18:35;5.32;;;2.40;;
34200;SDS011;20469;55.638;37.670;2024-02-04T04:21:04;2.65;;;2.13;;
34200;SDS011;20469;55.638;37.670;2024-02-04T04:23:32;2.05;;;1.75;;
34200;SDS011;20469;55.638;37.670;2024-02-04T04:25:59;3.35;;;1.90;;
34200;SDS011;20469;55.638;37.670;2024-02-04T04:28:28;3.20;;;1.90;;
34200;SDS011;20469;55.638;37.670;2024-02-04T04:30:56;2.10;;;1.80;;
34200;SDS011;20469;55.638;37.670;2024-02-04T04:33:24;2.20;;;1.70;;
34200;SDS011;20469;55.638;37.670;2024-02-04T04:35:53;3.60;;;1.80;;
34200;SDS011;20469;55.638;37.670;2024-02-04T04:38:21;3.95;;;2.20;;
34200;SDS011;20469;55.638;37.670;2024-02-04T04:40:50;2.67;;;1.70;;
34200;SDS011;20469;55.638;37.670;2024-02-04T04:43:17;3.20;;;1.98;;
34200;SDS011;20469;55.638;37.670;2024-02-04T04:45:45;3.55;;;1.90;;
34200;SDS011;20469;55.638;37.670;2024-02-04T04:48:13;3.45;;;1.70;;
34200;SDS011;20469;55.638;37.670;2024-02-04T04:50:46;2.50;;;1.80;;
34200;SDS011;20469;55.638;37.670;2024-02-04T04:53:14;2.10;;;1.48;;
34200;SDS011;20469;55.638;37.670;2024-02-04T04:55:42;1.30;;;1.20;;
34200;SDS011;20469;55.638;37.670;2024-02-04T04:58:10;2.22;;;1.48;;
34200;SDS011;20469;55.638;37.670;2024-02-04T05:00:38;4.85;;;1.70;;
34200;SDS011;20469;55.638;37.670;2024-02-04T05:03:06;1.83;;;1.50;;
34200;SDS011;20469;55.638;37.670;2024-02-04T05:05:34;2.47;;;1.50;;
34200;SDS011;20469;55.638;37.670;2024-02-04T05:08:02;3.17;;;1.52;;
34200;SDS011;20469;55.638;37.670;2024-02-04T05:10:30;2.50;;;1.35;;
34200;SDS011;20469;55.638;37.670;2024-02-04T05:12:58;2.22;;;1.40;;
34200;SDS011;20469;55.638;37.670;2024-02-04T05:15:27;1.60;;;1.50;;
34200;SDS011;20469;55.638;37.670;2024-02-04T05:17:56;6.38;;;1.77;;
34200;SDS011;20469;55.638;37.670;2024-02-04T05:20:24;2.75;;;1.80;;
34200;SDS011;20469;55.638;37.670;2024-02-04T05:22:52;1.88;;;1.50;;
34200;SDS011;20469;55.638;37.670;2024-02-04T05:25:22;2.92;;;1.45;;
34200;SDS011;20469;55.638;37.670;2024-02-04T05:27:50;1.90;;;1.60;;
34200;SDS011;20469;55.638;37.670;2024-02-04T05:30:19;8.15;;;2.10;;
34200;SDS011;20469;55.638;37.670;2024-02-04T05:32:47;3.42;;;1.55;;
34200;SDS011;20469;55.638;37.670;2024-02-04T05:35:15;2.22;;;1.27;;
34200;SDS011;20469;55.638;37.670;2024-02-04T05:37:42;1.20;;;1.10;;
34200;SDS011;20469;55.638;37.670;2024-02-04T05:40:11;2.17;;;1.40;;
34200;SDS011;20469;55.638;37.670;2024-02-04T05:42:41;1.95;;;1.40;;
34200;SDS011;20469;55.638;37.670;2024-02-04T05:45:09;2.95;;;1.40;;
34200;SDS011;20469;55.638;37.670;2024-02-04T05:47:37;1.83;;;1.55;;
34200;SDS011;20469;55.638;37.670;2024-02-04T05:50:05;3.33;;;1.40;;
34200;SDS011;20469;55.638;37.670;2024-02-04T05:52:34;3.15;;;1.30;;
34200;SDS011;20469;55.638;37.670;2024-02-04T05:55:01;4.18;;;1.90;;
34200;SDS011;20469;55.638;37.670;2024-02-04T05:57:31;3.22;;;1.45;;
34200;SDS011;20469;55.638;37.670;2024-02-04T06:00:00;3.03;;;1.30;;
34200;SDS011;20469;55.638;37.670;2024-02-04T06:02:29;5.60;;;1.48;;
34200;SDS011;20469;55.638;37.670;2024-02-04T06:04:57;3.28;;;1.52;;
34200;SDS011;20469;55.638;37.670;2024-02-04T06:07:25;2.15;;;1.20;;
34200;SDS011;20469;55.638;37.670;2024-02-04T06:09:54;2.83;;;1.00;;
34200;SDS011;20469;55.638;37.670;2024-02-04T06:12:30;1.67;;;0.90;;
34200;SDS011;20469;55.638;37.670;2024-02-04T06:14:58;2.25;;;1.10;;
34200;SDS011;20469;55.638;37.670;2024-02-04T06:17:26;2.38;;;1.02;;
34200;SDS011;20469;55.638;37.670;2024-02-04T06:19:54;1.52;;;1.00;;
34200;SDS011;20469;55.638;37.670;2024-02-04T06:22:24;3.50;;;1.00;;
34200;SDS011;20469;55.638;37.670;2024-02-04T06:24:51;1.70;;;0.90;;
34200;SDS011;20469;55.638;37.670;2024-02-04T06:27:19;1.13;;;0.88;;
34200;SDS011;20469;55.638;37.670;2024-02-04T06:29:47;2.00;;;1.00;;
34200;SDS011;20469;55.638;37.670;2024-02-04T06:32:16;2.03;;;0.93;;
34200;SDS011;20469;55.638;37.670;2024-02-04T06:34:47;1.48;;;0.90;;
34200;SDS011;20469;55.638;37.670;2024-02-04T06:37:15;1.02;;;0.82;;
34200;SDS011;20469;55.638;37.670;2024-02-04T06:39:43;2.78;;;0.90;;
34200;SDS011;20469;55.638;37.670;2024-02-04T06:42:11;1.63;;;0.98;;
34200;SDS011;20469;55.638;37.670;2024-02-04T06:44:41;2.92;;;1.13;;
34200;SDS011;20469;55.638;37.670;2024-02-04T06:47:23;2.60;;;0.80;;
34200;SDS011;20469;55.638;37.670;2024-02-04T06:49:54;1.65;;;0.80;;
34200;SDS011;20469;55.638;37.670;2024-02-04T06:52:29;1.40;;;0.85;;
34200;SDS011;20469;55.638;37.670;2024-02-04T06:54:57;1.08;;;0.90;;
34200;SDS011;20469;55.638;37.670;2024-02-04T06:57:25;1.95;;;1.10;;
34200;SDS011;20469;55.638;37.670;2024-02-04T06:59:53;2.28;;;1.20;;
34200;SDS011;20469;55.638;37.670;2024-02-04T07:02:21;1.02;;;0.70;;
34200;SDS011;20469;55.638;37.670;2024-02-04T07:04:49;2.03;;;0.80;;
34200;SDS011;20469;55.638;37.670;2024-02-04T07:07:20;1.35;;;1.13;;
34200;SDS011;20469;55.638;37.670;2024-02-04T07:09:50;2.28;;;0.70;;
34200;SDS011;20469;55.638;37.670;2024-02-04T07:12:20;1.55;;;0.98;;
34200;SDS011;20469;55.638;37.670;2024-02-04T07:14:52;1.25;;;0.80;;
34200;SDS011;20469;55.638;37.670;2024-02-04T07:17:21;2.90;;;0.85;;
34200;SDS011;20469;55.638;37.670;2024-02-04T07:19:48;1.13;;;0.73;;
34200;SDS011;20469;55.638;37.670;2024-02-04T07:22:16;1.75;;;0.98;;
34200;SDS011;20469;55.638;37.670;2024-02-04T07:24:44;1.38;;;0.90;;
34200;SDS011;20469;55.638;37.670;2024-02-04T07:27:12;6.93;;;1.80;;
34200;SDS011;20469;55.638;37.670;2024-02-04T07:29:40;1.55;;;1.35;;
34200;SDS011;20469;55.638;37.670;2024-02-04T07:32:08;2.45;;;0.98;;
34200;SDS011;20469;55.638;37.670;2024-02-04T07:34:36;1.15;;;0.95;;
34200;SDS011;20469;55.638;37.670;2024-02-04T07:37:04;2.78;;;1.10;;
34200;SDS011;20469;55.638;37.670;2024-02-04T07:39:32;1.00;;;0.65;;
34200;SDS011;20469;55.638;37.670;2024-02-04T07:42:00;2.15;;;1.40;;
34200;SDS011;20469;55.638;37.670;2024-02-04T07:44:29;2.60;;;1.10;;
34200;SDS011;20469;55.638;37.670;2024-02-04T07:46:57;1.17;;;0.63;;
34200;SDS011;20469;55.638;37.670;2024-02-04T07:49:25;1.15;;;0.88;;
34200;SDS011;20469;55.638;37.670;2024-02-04T07:51:53;3.25;;;0.80;;
34200;SDS011;20469;55.638;37.670;2024-02-04T07:54:21;1.40;;;1.00;;
34200;SDS011;20469;55.638;37.670;2024-02-04T07:56:50;1.13;;;0.93;;
34200;SDS011;20469;55.638;37.670;2024-02-04T07:59:19;0.70;;;0.70;;
34200;SDS011;20469;55.638;37.670;2024-02-04T08:01:47;1.50;;;0.77;;
34200;SDS011;20469;55.638;37.670;2024-02-04T08:04:15;2.40;;;0.85;;
34200;SDS011;20469;55.638;37.670;2024-02-04T08:06:43;3.08;;;1.00;;
34200;SDS011;20469;55.638;37.670;2024-02-04T08:09:11;2.08;;;1.10;;
34200;SDS011;20469;55.638;37.670;2024-02-04T08:11:39;1.00;;;0.80;;
34200;SDS011;20469;55.638;37.670;2024-02-04T08:14:07;1.83;;;0.90;;
34200;SDS011;20469;55.638;37.670;2024-02-04T08:16:35;1.88;;;0.80;;
34200;SDS011;20469;55.638;37.670;2024-02-04T08:19:03;2.40;;;1.00;;
34200;SDS011;20469;55.638;37.670;2024-02-04T08:21:33;2.55;;;1.40;;
34200;SDS011;20469;55.638;37.670;2024-02-04T08:24:01;2.63;;;1.10;;
34200;SDS011;20469;55.638;37.670;2024-02-04T08:26:29;4.60;;;1.52;;
34200;SDS011;20469;55.638;37.670;2024-02-04T08:28:57;2.75;;;1.10;;
34200;SDS011;20469;55.638;37.670;2024-02-04T08:31:25;1.90;;;1.17;;
34200;SDS011;20469;55.638;37.670;2024-02-04T08:33:52;3.15;;;1.13;;
34200;SDS011;20469;55.638;37.670;2024-02-04T08:36:20;2.30;;;1.60;;
34200;SDS011;20469;55.638;37.670;2024-02-04T08:38:48;1.52;;;0.90;;
34200;SDS011;20469;55.638;37.670;2024-02-04T08:41:16;3.35;;;0.80;;
34200;SDS011;20469;55.638;37.670;2024-02-04T08:43:44;3.58;;;1.20;;
34200;SDS011;20469;55.638;37.670;2024-02-04T08:46:12;2.05;;;1.10;;
34200;SDS011;20469;55.638;37.670;2024-02-04T08:48:40;1.80;;;1.00;;
34200;SDS011;20469;55.638;37.670;2024-02-04T08:51:10;3.13;;;1.40;;
34200;SDS011;20469;55.638;37.670;2024-02-04T08:53:39;4.10;;;1.05;;
34200;SDS011;20469;55.638;37.670;2024-02-04T08:56:07;2.72;;;1.48;;
34200;SDS011;20469;55.638;37.670;2024-02-04T08:58:36;3.33;;;1.20;;
34200;SDS011;20469;55.638;37.670;2024-02-04T09:01:04;4.22;;;1.30;;
34200;SDS011;20469;55.638;37.670;2024-02-04T09:03:33;4.05;;;1.80;;
34200;SDS011;20469;55.638;37.670;2024-02-04T09:06:01;3.20;;;1.45;;
34200;SDS011;20469;55.638;37.670;2024-02-04T09:08:29;5.03;;;1.75;;
34200;SDS011;20469;55.638;37.670;2024-02-04T09:10:58;3.10;;;1.25;;
34200;SDS011;20469;55.638;37.670;2024-02-04T09:13:27;3.22;;;1.20;;
34200;SDS011;20469;55.638;37.670;2024-02-04T09:15:55;6.80;;;1.85;;
34200;SDS011;20469;55.638;37.670;2024-02-04T09:18:24;7.13;;;1.92;;
34200;SDS011;20469;55.638;37.670;2024-02-04T09:20:52;4.75;;;1.45;;
34200;SDS011;20469;55.638;37.670;2024-02-04T09:23:20;4.47;;;2.67;;
34200;SDS011;20469;55.638;37.670;2024-02-04T09:25:48;16.95;;;10.75;;
34200;SDS011;20469;55.638;37.670;2024-02-04T09:28:16;6.03;;;2.20;;
34200;SDS011;20469;55.638;37.670;2024-02-04T09:30:47;6.03;;;1.88;;
34200;SDS011;20469;55.638;37.670;2024-02-04T09:33:15;5.30;;;2.00;;
34200;SDS011;20469;55.638;37.670;2024-02-04T09:35:44;6.65;;;1.77;;
34200;SDS011;20469;55.638;37.670;2024-02-04T09:38:13;5.63;;;1.67;;
34200;SDS011;20469;55.638;37.670;2024-02-04T09:40:42;5.35;;;1.90;;
34200;SDS011;20469;55.638;37.670;2024-02-04T09:43:10;6.60;;;1.88;;
34200;SDS011;20469;55.638;37.670;2024-02-04T09:45:38;6.40;;;1.95;;
34200;SDS011;20469;55.638;37.670;2024-02-04T09:48:06;8.93;;;2.03;;
34200;SDS011;20469;55.638;37.670;2024-02-04T09:50:36;7.28;;;2.08;;
34200;SDS011;20469;55.638;37.670;2024-02-04T09:53:06;6.53;;;1.77;;
34200;SDS011;20469;55.638;37.670;2024-02-04T09:55:35;8.32;;;2.17;;
34200;SDS011;20469;55.638;37.670;2024-02-04T09:58:05;5.85;;;2.15;;
34200;SDS011;20469;55.638;37.670;2024-02-04T10:00:33;8.32;;;2.55;;
34200;SDS011;20469;55.638;37.670;2024-02-04T10:03:01;7.50;;;1.90;;
34200;SDS011;20469;55.638;37.670;2024-02-04T10:05:30;7.47;;;2.10;;
34200;SDS011;20469;55.638;37.670;2024-02-04T10:07:58;9.52;;;2.13;;
34200;SDS011;20469;55.638;37.670;2024-02-04T10:10:26;7.88;;;1.90;;
34200;SDS011;20469;55.638;37.670;2024-02-04T10:12:57;11.95;;;2.70;;
34200;SDS011;20469;55.638;37.670;2024-02-04T10:15:30;6.57;;;2.13;;
34200;SDS011;20469;55.638;37.670;2024-02-04T10:17:58;10.57;;;2.78;;
34200;SDS011;20469;55.638;37.670;2024-02-04T10:20:28;11.15;;;2.22;;
34200;SDS011;20469;55.638;37.670;2024-02-04T10:22:56;8.73;;;2.10;;
34200;SDS011;20469;55.638;37.670;2024-02-04T10:25:24;8.07;;;2.10;;
34200;SDS011;20469;55.638;37.670;2024-02-04T10:27:52;7.35;;;2.17;;
34200;SDS011;20469;55.638;37.670;2024-02-04T10:30:21;6.43;;;2.00;;
34200;SDS011;20469;55.638;37.670;2024-02-04T10:32:52;11.00;;;2.15;;
34200;SDS011;20469;55.638;37.670;2024-02-04T10:35:21;8.98;;;2.55;;
34200;SDS011;20469;55.638;37.670;2024-02-04T10:37:50;6.85;;;2.10;;
34200;SDS011;20469;55.638;37.670;2024-02-04T10:40:18;7.47;;;2.50;;
34200;SDS011;20469;55.638;37.670;2024-02-04T10:42:46;8.30;;;2.35;;
34200;SDS011;20469;55.638;37.670;2024-02-04T10:45:15;8.02;;;2.55;;
34200;SDS011;20469;55.638;37.670;2024-02-04T10:47:47;6.90;;;1.80;;
34200;SDS011;20469;55.638;37.670;2024-02-04T10:50:21;6.75;;;2.00;;
34200;SDS011;20469;55.638;37.670;2024-02-04T10:52:51;8.90;;;2.00;;
34200;SDS011;20469;55.638;37.670;2024-02-04T10:55:21;8.65;;;2.00;;
34200;SDS011;20469;55.638;37.670;2024-02-04T10:57:50;9.70;;;2.50;;
34200;SDS011;20469;55.638;37.670;2024-02-04T11:00:18;6.90;;;2.13;;
34200;SDS011;20469;55.638;37.670;2024-02-04T11:02:47;10.25;;;2.38;;
34200;SDS011;20469;55.638;37.670;2024-02-04T11:05:17;10.35;;;2.10;;
34200;SDS011;20469;55.638;37.670;2024-02-04T11:07:45;10.88;;;2.30;;
34200;SDS011;20469;55.638;37.670;2024-02-04T11:10:13;9.65;;;2.20;;
34200;SDS011;20469;55.638;37.670;2024-02-04T11:12:41;6.45;;;1.83;;
34200;SDS011;20469;55.638;37.670;2024-02-04T11:15:10;7.63;;;2.30;;
34200;SDS011;20469;55.638;37.670;2024-02-04T11:23:01;6.88;;;1.73;;
34200;SDS011;20469;55.638;37.670;2024-02-04T11:27:59;7.38;;;1.90;;
34200;SDS011;20469;55.638;37.670;2024-02-04T11:30:27;4.68;;;1.55;;
34200;SDS011;20469;55.638;37.670;2024-02-04T11:32:55;8.23;;;2.20;;
34200;SDS011;20469;55.638;37.670;2024-02-04T11:35:22;6.95;;;2.33;;
34200;SDS011;20469;55.638;37.670;2024-02-04T11:37:53;5.65;;;1.58;;
34200;SDS011;20469;55.638;37.670;2024-02-04T11:40:35;5.55;;;1.58;;
34200;SDS011;20469;55.638;37.670;2024-02-04T11:43:04;5.38;;;1.75;;
34200;SDS011;20469;55.638;37.670;2024-02-04T11:45:32;5.38;;;1.80;;
34200;SDS011;20469;55.638;37.670;2024-02-04T11:48:01;3.72;;;1.23;;
34200;SDS011;20469;55.638;37.670;2024-02-04T11:50:29;4.65;;;1.38;;
34200;SDS011;20469;55.638;37.670;2024-02-04T11:53:05;6.00;;;1.55;;
34200;SDS011;20469;55.638;37.670;2024-02-04T11:55:34;5.38;;;1.52;;
34200;SDS011;20469;55.638;37.670;2024-02-04T11:58:11;4.43;;;1.40;;
34200;SDS011;20469;55.638;37.670;2024-02-04T12:00:42;5.40;;;1.60;;
34200;SDS011;20469;55.638;37.670;2024-02-04T12:03:13;6.30;;;1.40;;
34200;SDS011;20469;55.638;37.670;2024-02-04T12:05:41;4.28;;;1.50;;
34200;SDS011;20469;55.638;37.670;2024-02-04T12:08:11;7.07;;;1.40;;
34200;SDS011;20469;55.638;37.670;2024-02-04T12:10:39;3.90;;;1.45;;
34200;SDS011;20469;55.638;37.670;2024-02-04T12:13:07;4.95;;;1.70;;
34200;SDS011;20469;55.638;37.670;2024-02-04T12:15:35;5.03;;;1.50;;
34200;SDS011;20469;55.638;37.670;2024-02-04T12:18:07;3.92;;;1.38;;
34200;SDS011;20469;55.638;37.670;2024-02-04T12:20:36;6.03;;;1.33;;
34200;SDS011;20469;55.638;37.670;2024-02-04T12:23:05;3.60;;;1.15;;
34200;SDS011;20469;55.638;37.670;2024-02-04T12:25:33;3.33;;;1.50;;
34200;SDS011;20469;55.638;37.670;2024-02-04T12:28:04;5.15;;;1.40;;
34200;SDS011;20469;55.638;37.670;2024-02-04T12:30:32;3.25;;;1.10;;
34200;SDS011;20469;55.638;37.670;2024-02-04T12:33:01;3.17;;;1.20;;
34200;SDS011;20469;55.638;37.670;2024-02-04T12:35:31;5.60;;;1.50;;
34200;SDS011;20469;55.638;37.670;2024-02-04T12:37:59;1.83;;;0.90;;
34200;SDS011;20469;55.638;37.670;2024-02-04T12:40:28;6.32;;;1.45;;
34200;SDS011;20469;55.638;37.670;2024-02-04T12:43:01;4.13;;;1.25;;
34200;SDS011;20469;55.638;37.670;2024-02-04T12:45:33;2.67;;;1.08;;
34200;SDS011;20469;55.638;37.670;2024-02-04T12:48:01;3.95;;;1.00;;
34200;SDS011;20469;55.638;37.670;2024-02-04T12:50:29;2.53;;;1.13;;
34200;SDS011;20469;55.638;37.670;2024-02-04T12:55:34;4.45;;;2.00;;
34200;SDS011;20469;55.638;37.670;2024-02-04T12:58:12;2.17;;;1.17;;
34200;SDS011;20469;55.638;37.670;2024-02-04T13:00:45;6.00;;;1.70;;
34200;SDS011;20469;55.638;37.670;2024-02-04T13:03:15;3.08;;;1.50;;
34200;SDS011;20469;55.638;37.670;2024-02-04T13:05:43;3.35;;;1.10;;
34200;SDS011;20469;55.638;37.670;2024-02-04T13:08:12;4.57;;;1.20;;
34200;SDS011;20469;55.638;37.670;2024-02-04T13:10:40;3.47;;;1.33;;
34200;SDS011;20469;55.638;37.670;2024-02-04T13:13:10;4.10;;;1.20;;
34200;SDS011;20469;55.638;37.670;2024-02-04T13:15:40;4.88;;;1.10;;
34200;SDS011;20469;55.638;37.670;2024-02-04T13:18:10;4.72;;;1.13;;
34200;SDS011;20469;55.638;37.670;2024-02-04T13:20:38;6.93;;;1.30;;
34200;SDS011;20469;55.638;37.670;2024-02-04T13:23:07;2.58;;;0.90;;
34200;SDS011;20469;55.638;37.670;2024-02-04T13:25:36;3.25;;;1.00;;
34200;SDS011;20469;55.638;37.670;2024-02-04T13:28:03;1.80;;;1.02;;
34200;SDS011;20469;55.638;37.670;2024-02-04T13:30:32;3.50;;;1.05;;
34200;SDS011;20469;55.638;37.670;2024-02-04T13:33:01;2.92;;;1.80;;
34200;SDS011;20469;55.638;37.670;2024-02-04T13:35:30;4.65;;;1.30;;
34200;SDS011;20469;55.638;37.670;2024-02-04T13:37:58;3.67;;;1.63;;
34200;SDS011;20469;55.638;37.670;2024-02-04T13:40:26;9.07;;;3.08;;
34200;SDS011;20469;55.638;37.670;2024-02-04T13:42:54;4.25;;;1.35;;
34200;SDS011;20469;55.638;37.670;2024-02-04T13:45:23;4.82;;;1.45;;
34200;SDS011;20469;55.638;37.670;2024-02-04T13:47:52;4.57;;;1.27;;
34200;SDS011;20469;55.638;37.670;2024-02-04T13:50:20;2.85;;;1.20;;
34200;SDS011;20469;55.638;37.670;2024-02-04T13:52:49;4.50;;;1.70;;
34200;SDS011;20469;55.638;37.670;2024-02-04T13:55:17;4.00;;;1.50;;
34200;SDS011;20469;55.638;37.670;2024-02-04T13:57:44;4.40;;;1.55;;
34200;SDS011;20469;55.638;37.670;2024-02-04T14:00:12;3.35;;;1.50;;
34200;SDS011;20469;55.638;37.670;2024-02-04T14:02:40;4.25;;;1.30;;
34200;SDS011;20469;55.638;37.670;2024-02-04T14:05:09;3.15;;;1.40;;
34200;SDS011;20469;55.638;37.670;2024-02-04T14:07:37;3.03;;;1.65;;
34200;SDS011;20469;55.638;37.670;2024-02-04T14:10:05;6.60;;;3.17;;
34200;SDS011;20469;55.638;37.670;2024-02-04T14:12:34;5.25;;;1.38;;
34200;SDS011;20469;55.638;37.670;2024-02-04T14:15:03;4.40;;;1.63;;
34200;SDS011;20469;55.638;37.670;2024-02-04T14:17:31;4.45;;;1.35;;
34200;SDS011;20469;55.638;37.670;2024-02-04T14:19:59;4.25;;;1.70;;
34200;SDS011;20469;55.638;37.670;2024-02-04T14:22:29;2.20;;;1.02;;
34200;SDS011;20469;55.638;37.670;2024-02-04T14:24:57;2.70;;;1.40;;
34200;SDS011;20469;55.638;37.670;2024-02-04T14:27:28;3.42;;;1.20;;
34200;SDS011;20469;55.638;37.670;2024-02-04T14:29:57;3.58;;;1.45;;
34200;SDS011;20469;55.638;37.670;2024-02-04T14:32:25;4.15;;;1.40;;
34200;SDS011;20469;55.638;37.670;2024-02-04T14:34:53;3.85;;;1.58;;
34200;SDS011;20469;55.638;37.670;2024-02-04T14:37:21;4.38;;;1.63;;
34200;SDS011;20469;55.638;37.670;2024-02-04T14:39:49;3.60;;;1.40;;
34200;SDS011;20469;55.638;37.670;2024-02-04T14:42:17;5.95;;;1.77;;
34200;SDS011;20469;55.638;37.670;2024-02-04T14:44:45;3.92;;;1.70;;
34200;SDS011;20469;55.638;37.670;2024-02-04T14:47:13;7.22;;;1.60;;
34200;SDS011;20469;55.638;37.670;2024-02-04T14:49:41;3.60;;;1.50;;
34200;SDS011;20469;55.638;37.670;2024-02-04T14:52:10;3.97;;;1.38;;
34200;SDS011;20469;55.638;37.670;2024-02-04T14:54:39;10.07;;;4.32;;
34200;SDS011;20469;55.638;37.670;2024-02-04T14:57:07;5.00;;;1.70;;
34200;SDS011;20469;55.638;37.670;2024-02-04T14:59:36;3.90;;;1.65;;
34200;SDS011;20469;55.638;37.670;2024-02-04T15:02:06;4.05;;;1.40;;
34200;SDS011;20469;55.638;37.670;2024-02-04T15:04:35;6.15;;;1.98;;
34200;SDS011;20469;55.638;37.670;2024-02-04T15:07:03;4.97;;;1.92;;